createdAt,value
2022-11-08T00:01:49.397Z,2.83
2022-11-08T00:04:20.114Z,2.72
2022-11-08T00:07:08.256Z,2.73
2022-11-08T00:09:54.880Z,2.71
2022-11-08T00:12:41.381Z,2.61
2022-11-08T00:15:11.989Z,2.52
2022-11-08T00:17:43.278Z,2.46
2022-11-08T00:20:12.880Z,2.58
2022-11-08T00:22:43.523Z,2.58
2022-11-08T00:25:12.849Z,2.59
2022-11-08T00:27:42.136Z,2.65
2022-11-08T00:30:12.220Z,2.49
2022-11-08T00:32:41.575Z,2.47
2022-11-08T00:35:11.170Z,2.55
2022-11-08T00:37:40.300Z,2.54
2022-11-08T00:40:13.071Z,2.46
2022-11-08T00:42:42.307Z,2.42
2022-11-08T00:45:11.559Z,2.61
2022-11-08T00:47:40.619Z,2.70
2022-11-08T00:50:10.846Z,2.63
2022-11-08T00:52:40.180Z,2.63
2022-11-08T00:55:11.170Z,2.66
2022-11-08T00:57:58.598Z,2.82
2022-11-08T01:00:29.532Z,2.83
2022-11-08T01:03:12.523Z,2.72
2022-11-08T01:05:42.041Z,2.58
2022-11-08T01:08:12.937Z,2.53
2022-11-08T01:10:44.670Z,2.60
2022-11-08T01:13:14.275Z,2.60
2022-11-08T01:15:45.874Z,2.49
2022-11-08T01:18:18.352Z,2.48
2022-11-08T01:20:50.913Z,2.55
2022-11-08T01:23:20.530Z,2.64
2022-11-08T01:25:51.042Z,2.60
2022-11-08T01:28:20.541Z,2.60
2022-11-08T01:30:50.124Z,2.45
2022-11-08T01:33:19.222Z,2.34
2022-11-08T01:35:48.235Z,2.32
2022-11-08T01:38:17.438Z,2.29
2022-11-08T01:40:48.983Z,2.23
2022-11-08T01:43:41.460Z,2.13
2022-11-08T01:46:42.645Z,2.42
2022-11-08T01:49:44.433Z,2.23
2022-11-08T01:52:29.015Z,2.15
2022-11-08T01:55:05.845Z,2.06
2022-11-08T01:57:44.992Z,2.03
2022-11-08T02:00:17.454Z,2.05
2022-11-08T02:02:52.886Z,2.11
2022-11-08T02:05:28.308Z,2.10
2022-11-08T02:08:04.087Z,2.01
2022-11-08T02:10:37.699Z,1.94
2022-11-08T02:13:14.711Z,1.85
2022-11-08T02:15:46.054Z,1.90
2022-11-08T02:18:17.859Z,1.76
2022-11-08T02:21:01.950Z,1.68
2022-11-08T02:23:46.999Z,1.73
2022-11-08T02:26:17.983Z,1.75
2022-11-08T02:28:49.485Z,1.89
2022-11-08T02:31:21.148Z,1.79
2022-11-08T02:33:50.918Z,1.77
2022-11-08T02:36:24.127Z,1.73
2022-11-08T02:38:58.365Z,1.64
2022-11-08T02:41:27.865Z,1.64
2022-11-08T02:43:59.902Z,1.59
2022-11-08T02:46:28.967Z,1.46
2022-11-08T02:48:58.164Z,1.37
2022-11-08T02:51:27.154Z,1.32
2022-11-08T02:53:57.724Z,1.33
2022-11-08T02:56:26.747Z,1.29
2022-11-08T02:58:56.227Z,1.34
2022-11-08T03:01:25.486Z,1.33
2022-11-08T03:03:54.639Z,1.31
2022-11-08T03:06:23.646Z,1.30
2022-11-08T03:08:52.730Z,1.27
2022-11-08T03:11:23.188Z,1.36
2022-11-08T03:13:52.242Z,1.33
2022-11-08T03:16:21.272Z,1.28
2022-11-08T03:18:50.369Z,1.21
2022-11-08T03:21:20.544Z,1.12
2022-11-08T03:23:49.630Z,1.14
2022-11-08T03:26:18.798Z,1.11
2022-11-08T03:28:49.218Z,1.14
2022-11-08T03:31:18.270Z,1.11
2022-11-08T03:33:47.264Z,1.00
2022-11-08T03:36:16.311Z,1.06
2022-11-08T03:38:45.344Z,1.03
2022-11-08T03:41:14.424Z,1.01
2022-11-08T03:43:43.426Z,1.01
2022-11-08T03:46:13.958Z,0.98
2022-11-08T03:48:43.026Z,0.85
2022-11-08T03:51:12.207Z,0.78
2022-11-08T03:53:41.266Z,0.74
2022-11-08T03:56:10.356Z,0.78
2022-11-08T03:58:40.168Z,0.89
2022-11-08T04:01:09.721Z,0.92
2022-11-08T04:03:40.242Z,1.05
2022-11-08T04:06:09.687Z,0.94
2022-11-08T04:08:38.718Z,1.00
2022-11-08T04:11:21.623Z,1.12
2022-11-08T04:14:08.214Z,0.99
2022-11-08T04:16:37.468Z,0.94
2022-11-08T04:19:25.717Z,0.88
2022-11-08T04:21:55.977Z,0.88
2022-11-08T04:24:25.215Z,0.87
2022-11-08T04:26:54.341Z,0.80
2022-11-08T04:29:23.396Z,0.76
2022-11-08T04:31:52.877Z,0.66
2022-11-08T04:34:23.409Z,0.63
2022-11-08T04:36:52.468Z,0.49
2022-11-08T04:39:21.508Z,0.43
2022-11-08T04:41:50.591Z,0.42
2022-11-08T04:44:19.604Z,0.44
2022-11-08T04:46:48.735Z,0.48
2022-11-08T04:49:17.981Z,0.61
2022-11-08T04:51:48.450Z,0.69
2022-11-08T04:54:17.462Z,0.87
2022-11-08T04:56:46.508Z,0.79
2022-11-08T04:59:15.559Z,0.60
2022-11-08T05:01:44.786Z,0.41
2022-11-08T05:04:13.894Z,0.46
2022-11-08T05:06:43.037Z,0.42
2022-11-08T05:09:14.706Z,0.41
2022-11-08T05:11:46.460Z,0.40
2022-11-08T05:14:15.734Z,0.42
2022-11-08T05:16:44.763Z,0.46
2022-11-08T05:19:35.604Z,0.38
2022-11-08T05:22:22.126Z,0.40
2022-11-08T05:24:52.566Z,0.50
2022-11-08T05:27:21.678Z,0.53
2022-11-08T05:29:50.838Z,0.53
2022-11-08T05:32:19.935Z,0.49
2022-11-08T05:34:49.082Z,0.46
2022-11-08T05:37:18.208Z,0.61
2022-11-08T05:39:47.279Z,0.61
2022-11-08T05:42:17.758Z,0.51
2022-11-08T05:44:46.799Z,0.44
2022-11-08T05:47:16.218Z,0.46
2022-11-08T05:49:45.306Z,0.44
2022-11-08T05:52:14.299Z,0.50
2022-11-08T05:54:43.371Z,0.52
2022-11-08T05:57:12.365Z,0.54
2022-11-08T05:59:43.507Z,0.55
2022-11-08T06:02:12.910Z,0.49
2022-11-08T06:04:42.038Z,0.48
2022-11-08T06:07:11.066Z,0.54
2022-11-08T06:09:41.346Z,0.53
2022-11-08T06:12:10.522Z,0.62
2022-11-08T06:14:39.542Z,0.65
2022-11-08T06:17:10.056Z,0.64
2022-11-08T06:19:39.190Z,0.68
2022-11-08T06:22:08.576Z,0.68
2022-11-08T06:24:37.833Z,0.71
2022-11-08T06:27:06.947Z,0.71
2022-11-08T06:29:36.001Z,0.75
2022-11-08T06:32:05.476Z,0.81
2022-11-08T06:34:35.899Z,0.91
2022-11-08T06:37:06.316Z,1.02
2022-11-08T06:39:35.317Z,1.17
2022-11-08T06:42:04.549Z,1.38
2022-11-08T06:44:33.803Z,1.42
2022-11-08T06:47:03.082Z,1.54
2022-11-08T06:49:32.234Z,1.78
2022-11-08T06:52:02.714Z,1.85
2022-11-08T06:54:31.846Z,1.92
2022-11-08T06:57:02.154Z,2.03
2022-11-08T06:59:31.214Z,2.14
2022-11-08T07:02:00.379Z,2.33
2022-11-08T07:04:29.562Z,2.52
2022-11-08T07:06:58.711Z,2.60
2022-11-08T07:09:29.990Z,2.63
2022-11-08T07:11:59.099Z,2.66
2022-11-08T07:14:28.193Z,2.76
2022-11-08T07:16:57.294Z,2.91
2022-11-08T07:19:26.329Z,3.07
2022-11-08T07:21:55.388Z,3.25
2022-11-08T07:24:24.373Z,3.43
2022-11-08T07:26:54.802Z,3.49
2022-11-08T07:29:23.853Z,3.50
2022-11-08T07:31:52.956Z,3.54
2022-11-08T07:34:23.170Z,3.64
2022-11-08T07:36:52.243Z,3.85
2022-11-08T07:39:21.331Z,4.02
2022-11-08T07:41:50.447Z,4.14
2022-11-08T07:44:20.941Z,4.21
2022-11-08T07:46:49.968Z,4.47
2022-11-08T07:49:19.049Z,4.62
2022-11-08T07:51:48.197Z,4.71
2022-11-08T07:54:17.512Z,4.76
2022-11-08T07:56:46.586Z,4.92
2022-11-08T07:59:16.116Z,5.18
2022-11-08T08:01:46.531Z,5.19
2022-11-08T08:04:15.621Z,5.31
2022-11-08T08:06:44.655Z,5.42
2022-11-08T08:09:13.724Z,5.58
2022-11-08T08:11:42.809Z,5.86
2022-11-08T08:14:11.977Z,6.23
2022-11-08T08:16:41.094Z,6.53
2022-11-08T08:19:11.643Z,6.68
2022-11-08T08:21:40.774Z,6.85
2022-11-08T08:24:10.339Z,7.13
2022-11-08T08:26:39.603Z,7.30
2022-11-08T08:29:08.630Z,7.51
2022-11-08T08:31:37.687Z,7.71
2022-11-08T08:34:06.801Z,7.86
2022-11-08T08:36:37.218Z,7.95
2022-11-08T08:39:06.300Z,7.93
2022-11-08T08:41:35.367Z,7.98
2022-11-08T08:44:04.592Z,8.22
2022-11-08T08:46:33.750Z,8.49
2022-11-08T08:49:02.794Z,8.63
2022-11-08T08:51:31.903Z,8.81
2022-11-08T08:54:02.391Z,8.89
2022-11-08T08:56:31.462Z,9.16
2022-11-08T09:01:50.231Z,9.62
2022-11-08T09:04:19.267Z,9.82
2022-11-08T09:06:48.466Z,9.95
2022-11-08T09:09:18.950Z,10.02
2022-11-08T09:11:48.304Z,10.13
2022-11-08T09:14:17.419Z,10.14
2022-11-08T09:16:46.470Z,10.20
2022-11-08T09:19:15.482Z,10.32
2022-11-08T09:21:44.701Z,10.35
2022-11-08T09:24:13.770Z,10.50
2022-11-08T09:26:44.290Z,10.51
2022-11-08T09:29:13.342Z,10.69
2022-11-08T09:31:42.393Z,10.74
2022-11-08T09:34:11.496Z,10.90
2022-11-08T09:36:40.584Z,10.93
2022-11-08T09:39:09.691Z,11.05
2022-11-08T09:42:22.455Z,11.11
2022-11-08T09:45:19.876Z,11.07
2022-11-08T09:47:53.165Z,11.17
2022-11-08T09:50:27.687Z,11.29
2022-11-08T09:53:08.805Z,11.40
2022-11-08T09:55:41.942Z,11.49
2022-11-08T09:58:29.577Z,11.60
2022-11-08T10:00:59.787Z,11.58
2022-11-08T10:03:30.041Z,11.70
2022-11-08T10:06:32.725Z,11.74
2022-11-08T10:09:14.315Z,11.80
2022-11-08T10:12:02.387Z,11.86
2022-11-08T10:14:52.297Z,11.86
2022-11-08T10:17:47.368Z,11.90
2022-11-08T10:20:29.925Z,11.88
2022-11-08T10:23:11.337Z,11.96
2022-11-08T10:25:46.255Z,11.98
2022-11-08T10:28:19.215Z,11.93
2022-11-08T10:30:53.151Z,12.03
2022-11-08T10:33:39.991Z,12.04
2022-11-08T10:36:14.809Z,12.11
2022-11-08T10:38:51.397Z,12.29
2022-11-08T10:41:26.564Z,12.48
2022-11-08T10:44:05.022Z,12.57
2022-11-08T10:46:44.877Z,12.79
2022-11-08T10:49:21.827Z,12.89
2022-11-08T10:51:54.083Z,12.89
2022-11-08T10:54:48.779Z,12.93
2022-11-08T10:57:23.770Z,13.05
2022-11-08T10:59:54.071Z,13.18
2022-11-08T11:02:29.832Z,13.27
2022-11-08T11:05:27.594Z,13.33
2022-11-08T11:08:04.982Z,13.40
2022-11-08T11:10:35.224Z,13.60
2022-11-08T11:13:07.595Z,14.17
2022-11-08T11:15:39.642Z,14.39
2022-11-08T11:18:31.628Z,14.34
2022-11-08T11:21:10.000Z,14.18
2022-11-08T11:23:44.424Z,14.08
2022-11-08T11:26:28.882Z,14.19
2022-11-08T11:29:23.413Z,14.51
2022-11-08T11:31:55.015Z,14.63
2022-11-08T11:34:51.770Z,14.61
2022-11-08T11:37:34.487Z,14.49
2022-11-08T11:40:15.767Z,14.42
2022-11-08T11:42:55.418Z,14.33
2022-11-08T11:45:32.118Z,14.35
2022-11-08T11:48:05.147Z,14.92
2022-11-08T11:50:38.117Z,16.13
2022-11-08T11:53:15.404Z,17.17
2022-11-08T11:56:06.593Z,16.89
2022-11-08T11:58:57.482Z,16.51
2022-11-08T12:01:52.431Z,16.19
2022-11-08T12:04:49.730Z,16.13
2022-11-08T12:07:25.492Z,16.84
2022-11-08T12:10:14.835Z,17.05
2022-11-08T12:12:59.895Z,16.69
2022-11-08T12:15:38.527Z,16.94
2022-11-08T12:18:43.356Z,16.99
2022-11-08T12:21:15.898Z,17.06
2022-11-08T12:24:19.087Z,16.97
2022-11-08T12:26:56.071Z,16.73
2022-11-08T12:29:28.304Z,16.66
2022-11-08T12:32:25.364Z,16.71
2022-11-08T12:35:18.053Z,16.60
2022-11-08T12:38:03.918Z,16.68
2022-11-08T12:40:46.814Z,16.95
2022-11-08T12:43:37.055Z,17.12
2022-11-08T12:46:13.619Z,17.30
2022-11-08T12:49:23.097Z,17.43
2022-11-08T12:52:10.140Z,17.37
2022-11-08T12:54:42.740Z,17.64
2022-11-08T12:57:17.736Z,18.01
2022-11-08T12:59:50.206Z,18.77
2022-11-08T13:02:24.438Z,19.71
2022-11-08T13:05:02.857Z,19.82
2022-11-08T13:07:44.713Z,19.82
2022-11-08T13:10:26.088Z,19.47
2022-11-08T13:13:22.236Z,19.82
2022-11-08T13:16:15.502Z,20.70
2022-11-08T13:18:54.135Z,20.99
2022-11-08T13:21:42.087Z,20.53
2022-11-08T13:24:44.458Z,20.04
2022-11-08T13:27:35.548Z,21.38
2022-11-08T13:30:36.383Z,21.89
2022-11-08T13:33:17.388Z,21.96
2022-11-08T13:35:57.448Z,21.75
2022-11-08T13:38:40.393Z,21.99
2022-11-08T13:41:19.831Z,22.32
2022-11-08T13:43:50.607Z,22.78
2022-11-08T13:46:52.187Z,23.09
2022-11-08T13:49:24.323Z,23.61
2022-11-08T13:52:46.152Z,23.56
2022-11-08T13:55:46.854Z,24.36
2022-11-08T13:58:32.198Z,25.66
2022-11-08T14:01:03.891Z,25.82
2022-11-08T14:06:41.862Z,25.85
2022-11-08T14:09:29.186Z,27.25
2022-11-08T14:12:07.924Z,25.84
2022-11-08T14:14:48.517Z,25.80
2022-11-08T14:17:45.636Z,26.44
2022-11-08T14:20:28.214Z,26.27
2022-11-08T14:23:00.199Z,22.69
2022-11-08T14:25:32.810Z,21.97
2022-11-08T14:28:02.396Z,22.27
2022-11-08T14:30:32.139Z,23.51
2022-11-08T14:33:17.414Z,23.25
2022-11-08T14:35:57.010Z,22.17
2022-11-08T14:38:28.581Z,21.72
2022-11-08T14:41:01.883Z,20.75
2022-11-08T14:43:32.364Z,19.50
2022-11-08T14:46:12.602Z,18.29
2022-11-08T14:48:51.084Z,17.21
2022-11-08T14:51:20.526Z,16.24
2022-11-08T14:53:54.008Z,15.42
2022-11-08T14:56:25.248Z,14.72
2022-11-08T14:58:56.251Z,14.17
2022-11-08T15:01:27.926Z,13.79
2022-11-08T15:03:59.900Z,13.41
2022-11-08T15:06:37.780Z,13.09
2022-11-08T15:09:09.579Z,12.74
2022-11-08T15:11:43.446Z,12.39
2022-11-08T15:14:19.908Z,12.06
2022-11-08T15:16:55.312Z,11.76
2022-11-08T15:19:35.163Z,11.23
2022-11-08T15:22:24.554Z,10.99
2022-11-08T15:25:04.452Z,10.51
2022-11-08T15:27:33.537Z,10.43
2022-11-08T15:30:08.590Z,10.19
2022-11-08T15:32:40.105Z,10.11
2022-11-08T15:35:24.865Z,10.02
2022-11-08T15:37:59.954Z,9.84
2022-11-08T15:40:33.641Z,9.85
2022-11-08T15:43:03.649Z,9.74
2022-11-08T15:45:35.797Z,9.51
2022-11-08T15:48:22.819Z,9.24
2022-11-08T15:50:51.930Z,9.01
2022-11-08T15:53:21.318Z,8.90
2022-11-08T15:55:54.971Z,8.61
2022-11-08T15:58:29.671Z,8.64
2022-11-08T16:01:01.637Z,8.71
2022-11-08T16:03:31.526Z,8.61
2022-11-08T16:06:00.688Z,8.39
2022-11-08T16:08:29.782Z,8.33
2022-11-08T16:11:01.861Z,8.18
2022-11-08T16:13:35.485Z,8.06
2022-11-08T16:16:11.162Z,8.04
2022-11-08T16:18:40.338Z,7.88
2022-11-08T16:21:11.605Z,7.84
2022-11-08T16:23:41.463Z,7.54
2022-11-08T16:26:17.527Z,7.56
2022-11-08T16:28:46.630Z,7.64
2022-11-08T16:31:17.884Z,7.45
2022-11-08T16:33:48.150Z,7.40
2022-11-08T16:36:21.824Z,7.26
2022-11-08T16:38:53.722Z,7.20
2022-11-08T16:41:26.041Z,7.13
2022-11-08T16:43:56.473Z,7.20
2022-11-08T16:46:25.902Z,7.17
2022-11-08T16:48:58.137Z,7.10
2022-11-08T16:51:27.727Z,6.96
2022-11-08T16:53:57.096Z,6.89
2022-11-08T16:56:27.618Z,6.90
2022-11-08T16:58:56.635Z,7.00
2022-11-08T17:01:32.483Z,6.86
2022-11-08T17:04:01.930Z,6.96
2022-11-08T17:06:31.368Z,6.71
2022-11-08T17:09:00.600Z,6.52
2022-11-08T17:11:31.091Z,6.57
2022-11-08T17:14:00.253Z,6.40
2022-11-08T17:16:29.451Z,6.33
2022-11-08T17:18:58.842Z,6.19
2022-11-08T17:21:45.421Z,6.24
2022-11-08T17:24:21.296Z,6.18
2022-11-08T17:26:53.643Z,6.02
2022-11-08T17:29:22.739Z,6.12
2022-11-08T17:31:53.438Z,5.92
2022-11-08T17:34:22.520Z,5.98
2022-11-08T17:36:53.170Z,5.93
2022-11-08T17:39:22.274Z,5.82
2022-11-08T17:41:52.727Z,5.78
2022-11-08T17:44:22.053Z,5.66
2022-11-08T17:47:18.306Z,5.71
2022-11-08T17:49:47.478Z,5.71
2022-11-08T17:52:17.298Z,5.48
2022-11-08T17:54:51.698Z,5.42
2022-11-08T17:57:23.373Z,5.37
2022-11-08T17:59:55.313Z,5.35
2022-11-08T18:02:28.113Z,5.33
2022-11-08T18:04:57.320Z,5.56
2022-11-08T18:07:26.522Z,5.48
2022-11-08T18:09:55.579Z,5.31
2022-11-08T18:12:26.143Z,5.32
2022-11-08T18:14:55.212Z,5.20
2022-11-08T18:17:24.339Z,5.14
2022-11-08T18:19:53.453Z,5.14
2022-11-08T18:22:22.621Z,5.23
2022-11-08T18:24:51.826Z,5.24
2022-11-08T18:27:20.995Z,5.05
2022-11-08T18:29:51.847Z,5.07
2022-11-08T18:32:21.138Z,5.02
2022-11-08T18:34:50.469Z,4.93
2022-11-08T18:37:19.910Z,4.80
2022-11-08T18:39:49.007Z,4.74
2022-11-08T18:42:20.050Z,4.71
2022-11-08T18:44:49.141Z,4.63
2022-11-08T18:47:19.695Z,4.79
2022-11-08T18:49:49.238Z,4.91
2022-11-08T18:52:18.611Z,4.79
2022-11-08T18:54:48.902Z,4.78
2022-11-08T18:57:20.811Z,4.82
2022-11-08T18:59:50.049Z,4.52
2022-11-08T19:02:21.268Z,4.44
2022-11-08T19:04:50.786Z,4.57
2022-11-08T19:07:20.326Z,4.65
2022-11-08T19:09:50.884Z,4.57
2022-11-08T19:12:20.708Z,4.52
2022-11-08T19:14:50.033Z,4.38
2022-11-08T19:17:20.748Z,4.41
2022-11-08T19:19:50.414Z,4.45
2022-11-08T19:22:19.725Z,4.45
2022-11-08T19:24:48.969Z,4.39
2022-11-08T19:27:18.061Z,4.22
2022-11-08T19:29:47.459Z,4.10
2022-11-08T19:32:16.607Z,4.10
2022-11-08T19:34:47.184Z,3.98
2022-11-08T19:37:16.441Z,4.05
2022-11-08T19:39:45.868Z,3.99
2022-11-08T19:42:15.259Z,3.96
2022-11-08T19:44:44.661Z,3.97
2022-11-08T19:47:13.894Z,3.94
2022-11-08T19:49:43.033Z,3.97
2022-11-08T19:52:13.755Z,3.87
2022-11-08T19:54:44.038Z,3.80
2022-11-08T19:57:13.771Z,3.94
2022-11-08T19:59:43.373Z,3.89
2022-11-08T20:02:12.679Z,3.76
2022-11-08T20:04:42.074Z,3.67
2022-11-08T20:07:11.260Z,3.59
2022-11-08T20:09:41.845Z,3.52
2022-11-08T20:12:11.109Z,3.53
2022-11-08T20:14:40.296Z,3.52
2022-11-08T20:17:10.519Z,3.59
2022-11-08T20:20:01.030Z,3.50
2022-11-08T20:22:37.990Z,3.50
2022-11-08T20:25:14.234Z,3.49
2022-11-08T20:27:44.931Z,3.36
2022-11-08T20:30:16.204Z,3.34
2022-11-08T20:32:45.286Z,3.32
2022-11-08T20:35:19.127Z,3.31
2022-11-08T20:37:52.366Z,3.34
2022-11-08T20:40:22.848Z,3.24
2022-11-08T20:42:51.910Z,3.36
2022-11-08T20:45:21.025Z,3.28
2022-11-08T20:47:50.235Z,3.18
2022-11-08T20:50:19.384Z,3.27
2022-11-08T20:52:48.395Z,3.17
2022-11-08T20:55:17.694Z,3.16
2022-11-08T20:57:48.117Z,3.14
2022-11-08T21:00:32.815Z,3.04
2022-11-08T21:03:07.767Z,3.03
2022-11-08T21:05:37.341Z,3.17
2022-11-08T21:08:57.479Z,3.26
2022-11-08T21:10:56.418Z,3.21
2022-11-08T21:13:29.802Z,3.20
2022-11-08T21:16:19.780Z,3.40
2022-11-08T21:18:49.918Z,3.50
2022-11-08T21:21:22.400Z,3.48
2022-11-08T21:23:52.289Z,3.31
2022-11-08T21:26:21.796Z,3.23
2022-11-08T21:28:52.450Z,3.26
2022-11-08T21:31:21.513Z,3.21
2022-11-08T21:33:50.669Z,3.15
2022-11-08T21:36:23.301Z,3.31
2022-11-08T21:38:52.402Z,3.26
2022-11-08T21:41:24.458Z,3.07
2022-11-08T21:43:54.992Z,2.94
2022-11-08T21:46:28.755Z,2.86
2022-11-08T21:49:00.152Z,2.82
2022-11-08T21:51:30.750Z,2.79
2022-11-08T21:54:00.613Z,2.86
2022-11-08T21:56:32.281Z,2.96
2022-11-08T21:59:04.250Z,3.05
2022-11-08T22:01:34.509Z,3.02
2022-11-08T22:04:03.565Z,2.81
2022-11-08T22:06:32.640Z,2.74
2022-11-08T22:09:01.706Z,2.78
2022-11-08T22:11:30.727Z,2.71
2022-11-08T22:13:59.950Z,2.85
2022-11-08T22:16:30.428Z,2.82
2022-11-08T22:19:06.729Z,2.75
2022-11-08T22:21:44.265Z,2.60
2022-11-08T22:24:17.438Z,2.68
2022-11-08T22:26:47.241Z,2.85
2022-11-08T22:29:17.833Z,2.92
2022-11-08T22:31:48.440Z,2.89
2022-11-08T22:34:17.933Z,2.86
2022-11-08T22:36:47.096Z,2.80
2022-11-08T22:39:18.881Z,2.77
2022-11-08T22:41:50.906Z,2.69
2022-11-08T22:44:21.394Z,2.76
2022-11-08T22:46:51.809Z,2.72
2022-11-08T22:49:20.928Z,2.51
2022-11-08T22:51:50.012Z,2.46
2022-11-08T22:54:19.066Z,2.45
2022-11-08T22:56:48.336Z,2.39
2022-11-08T22:59:17.350Z,2.44
2022-11-08T23:01:46.432Z,2.44
2022-11-08T23:04:17.326Z,2.40
2022-11-08T23:06:48.472Z,2.42
2022-11-08T23:09:17.631Z,2.36
2022-11-08T23:12:03.951Z,2.38
2022-11-08T23:14:50.492Z,2.57
2022-11-08T23:17:19.742Z,2.59
2022-11-08T23:20:07.787Z,2.52
2022-11-08T23:22:54.393Z,2.45
2022-11-08T23:25:23.529Z,2.54
2022-11-08T23:28:10.260Z,2.58
2022-11-08T23:30:58.884Z,2.40
2022-11-08T23:33:27.906Z,2.34
2022-11-08T23:36:15.622Z,2.45
2022-11-08T23:38:45.044Z,2.23
2022-11-08T23:41:31.319Z,2.07
2022-11-08T23:44:17.763Z,2.15
2022-11-08T23:46:46.735Z,2.06
2022-11-08T23:49:15.826Z,2.10
2022-11-08T23:51:46.282Z,2.06
2022-11-08T23:54:15.635Z,1.97
2022-11-08T23:56:45.612Z,1.96
2022-11-08T23:59:16.676Z,1.97
